Time;durP1;ratioP1;P1;durP2;ratioP2;P2;SDS_P1;SDS_P2;PMS_P1;PMS_P2;Temp;Humidity;BMP_temperature;BMP_pressure;BME280_temperature;BME280_humidity;BME280_pressure;Samples;Min_cycle;Max_cycle;Signal;HPM_P1;HPM_P2
2021/05/03 00:00:00;;;;;;;;;;;11.80;99.90;;;11.32;78.70;100858.38;5055814;28;19929;-63
2021/05/03 00:02:27;;;;;;;;;;;11.80;99.90;;;11.29;78.54;100853.53;5054809;28;19964;-63
2021/05/03 00:04:54;;;;;;;;;;;11.80;99.90;;;11.25;78.24;100850.59;5055341;28;19925;-63
2021/05/03 00:07:21;;;;;;;;;;;11.70;99.90;;;11.22;78.03;100847.69;5055658;28;20023;-62
2021/05/03 00:09:48;;;;;;;;;;;11.70;99.90;;;11.24;77.72;100845.50;5055645;28;20418;-63
2021/05/03 00:12:16;;;;;;;;;;;11.70;99.90;;;11.27;77.28;100848.44;5054590;28;20024;-63
2021/05/03 00:14:44;;;;;;;;;;;11.70;99.90;;;11.24;77.09;100838.19;5055300;28;19972;-63
2021/05/03 00:17:11;;;;;;;;;;;11.70;99.90;;;11.25;76.73;100844.38;5055489;28;19972;-62
2021/05/03 00:19:38;;;;;;;;;;;11.70;99.90;;;11.22;76.81;100837.66;5055656;28;20347;-62
2021/05/03 00:22:05;;;;;;;;;;;11.70;99.90;;;11.22;76.54;100836.84;5054280;28;19999;-63
2021/05/03 00:24:33;;;;;;;;;;;11.70;99.90;;;11.18;76.42;100838.56;5054941;28;19964;-63
2021/05/03 00:27:00;;;;;;;;;;;11.70;99.90;;;11.15;76.53;100836.44;5055223;28;19980;-63
2021/05/03 00:29:27;;;;;;;;;;;11.60;99.90;;;11.12;76.49;100845.16;5055313;28;19952;-63
2021/05/03 00:31:55;;;;;;;;;;;11.60;99.90;;;11.08;76.52;100838.69;5054471;28;19994;-63
2021/05/03 00:34:22;;;;;;;;;;;11.60;99.90;;;11.09;76.45;100824.06;5054843;28;19925;-63
2021/05/03 00:36:49;;;;;;;;;;;11.60;99.90;;;11.08;76.14;100825.16;5054899;28;19960;-62
2021/05/03 00:39:16;;;;;;;;;;;11.60;99.90;;;11.05;76.27;100821.16;5055115;28;20096;-62
2021/05/03 00:41:43;;;;;;;;;;;11.60;99.90;;;11.06;76.15;100830.06;5054237;28;19970;-63
2021/05/03 00:44:11;;;;;;;;;;;11.60;99.90;;;11.03;76.07;100830.66;5054487;28;19967;-63
2021/05/03 00:46:40;;;;;;;;;;;11.50;99.90;;;11.03;75.95;100827.94;5054926;28;20323;-62
2021/05/03 00:49:08;;;;;;;;;;;11.50;99.90;;;11.01;76.25;100830.13;5055246;28;20433;-62
2021/05/03 00:51:35;;;;;;;;;;;11.50;99.90;;;11.01;75.92;100825.53;5053877;28;20019;-63
2021/05/03 00:54:03;;;;;;;;;;;11.50;99.90;;;11.05;75.71;100820.34;5054320;28;19928;-63
2021/05/03 00:56:30;;;;;;;;;;;11.50;99.90;;;11.08;75.27;100822.47;5054550;28;19968;-63
2021/05/03 00:58:57;;;;;;;;;;;11.50;99.90;;;11.10;75.26;100815.66;5054827;28;20024;-63
2021/05/03 01:01:24;;;;;;;;;;;11.50;99.90;;;11.15;75.77;100818.31;5053892;28;19983;-63
2021/05/03 01:03:54;;;;;;;;;;;11.60;99.90;;;11.14;75.32;100813.16;5054116;28;19968;-63
2021/05/03 01:06:22;;;;;;;;;;;11.60;99.90;;;11.10;75.65;100812.13;5054461;28;19979;-63
2021/05/03 01:08:50;;;;;;;;;;;11.50;99.90;;;11.04;75.11;100802.47;5054687;28;20036;-63
2021/05/03 01:11:17;;;;;;;;;;;11.40;99.90;;;10.89;75.53;100812.44;5053784;28;19932;-63
2021/05/03 01:13:44;;;;;;;;;;;11.30;99.90;;;10.77;75.74;100803.94;5053703;28;19977;-63
2021/05/03 01:16:11;;;;;;;;;;;11.30;99.90;;;10.70;76.24;100798.09;5054256;28;19972;-63
2021/05/03 01:18:39;;;;;;;;;;;11.20;99.90;;;10.65;76.36;100798.16;5054550;28;19971;-62
2021/05/03 01:21:07;;;;;;;;;;;11.20;99.90;;;10.64;76.18;100793.06;5053690;28;20367;-62
2021/05/03 01:23:34;;;;;;;;;;;11.10;99.90;;;10.62;76.29;100796.03;5053572;28;19964;-63
2021/05/03 01:26:02;;;;;;;;;;;11.10;99.90;;;10.62;76.13;100797.94;5054176;28;19968;-62
2021/05/03 01:28:29;;;;;;;;;;;11.10;99.90;;;10.61;75.89;100786.31;5054399;28;19988;-63
2021/05/03 01:30:59;;;;;;;;;;;11.10;99.90;;;10.60;76.02;100778.50;5053424;28;19997;-62
2021/05/03 01:33:26;;;;;;;;;;;11.10;99.90;;;10.53;76.12;100780.75;5053373;28;19925;-63
2021/05/03 01:35:53;;;;;;;;;;;11.00;99.90;;;10.44;76.66;100780.59;5053772;28;20383;-63
2021/05/03 01:38:21;;;;;;;;;;;11.00;99.90;;;10.40;76.88;100779.53;5053893;28;19929;-63
2021/05/03 01:40:48;;;;;;;;;;;10.90;99.90;;;10.38;77.18;100770.94;5053402;28;19980;-63
2021/05/03 01:43:17;;;;;;;;;;;10.90;99.90;;;10.33;77.30;100776.41;5053114;28;20026;-63
2021/05/03 01:45:45;;;;;;;;;;;10.80;99.90;;;10.25;77.81;100758.09;5053677;28;19924;-63
2021/05/03 01:48:14;;;;;;;;;;;10.80;99.90;;;10.22;77.70;100758.69;5053885;28;19935;-63
2021/05/03 01:50:41;;;;;;;;;;;10.70;99.90;;;10.23;77.69;100754.91;5053644;28;20359;-63
2021/05/03 01:53:08;;;;;;;;;;;10.70;99.90;;;10.24;77.42;100751.13;5052798;28;19931;-63
2021/05/03 01:55:38;;;;;;;;;;;10.70;99.90;;;10.22;77.19;100739.78;5053508;28;20391;-63
2021/05/03 01:58:06;;;;;;;;;;;10.70;99.90;;;10.22;77.69;100742.47;5053590;28;20332;-62
2021/05/03 02:00:36;;;;;;;;;;;10.70;99.90;;;10.20;77.50;100742.78;5053432;28;19964;-63
2021/05/03 02:03:03;;;;;;;;;;;10.70;99.90;;;10.23;76.93;100733.28;5052467;28;19971;-63
2021/05/03 02:05:30;;;;;;;;;;;10.70;99.90;;;10.24;77.33;100743.00;5052880;28;19925;-63
2021/05/03 02:07:59;;;;;;;;;;;10.70;99.90;;;10.23;77.13;100744.91;5053502;28;20023;-63
2021/05/03 02:10:26;;;;;;;;;;;10.70;99.90;;;10.22;77.42;100745.19;5053162;28;19928;-63
2021/05/03 02:12:55;;;;;;;;;;;10.70;99.90;;;10.20;77.21;100745.47;5052109;28;20032;-63
2021/05/03 02:15:22;;;;;;;;;;;10.70;99.90;;;10.16;77.73;100739.03;5053158;28;19960;-62
2021/05/03 02:17:50;;;;;;;;;;;10.70;99.90;;;10.14;77.97;100737.72;5053149;28;19971;-63
2021/05/03 02:20:17;;;;;;;;;;;10.70;99.90;;;10.14;78.21;100735.03;5053077;28;19967;-63
2021/05/03 02:22:45;;;;;;;;;;;10.60;99.90;;;10.11;78.02;100741.78;5052003;28;19925;-62
2021/05/03 02:25:13;;;;;;;;;;;10.60;99.90;;;10.10;78.27;100739.34;5052894;28;19974;-62
2021/05/03 02:27:40;;;;;;;;;;;10.60;99.90;;;10.04;78.41;100744.00;5052965;28;19928;-62
2021/05/03 02:30:10;;;;;;;;;;;10.60;99.90;;;10.02;78.52;100743.50;5053052;28;20347;-63
2021/05/03 02:32:38;;;;;;;;;;;10.50;99.90;;;9.98;78.74;100744.34;5051850;28;20040;-62
2021/05/03 02:35:06;;;;;;;;;;;10.40;99.90;;;9.92;78.94;100740.91;5052773;28;19932;-62
2021/05/03 02:37:34;;;;;;;;;;;;;;;9.82;79.42;100741.81;5052535;28;20399;-63
2021/05/03 02:40:01;;;;;;;;;;;10.30;99.90;;;9.83;79.63;100738.03;5052857;28;20410;-63
2021/05/03 02:42:28;;;;;;;;;;;10.30;99.90;;;9.86;80.13;100742.06;5051196;28;19933;-62
2021/05/03 02:44:55;;;;;;;;;;;10.30;99.90;;;9.94;79.58;100735.22;5052417;28;20019;-63
2021/05/03 02:47:23;;;;;;;;;;;10.40;99.90;;;9.96;79.03;100739.25;5052630;28;20014;-62
2021/05/03 02:49:50;;;;;;;;;;;10.40;99.90;;;9.95;79.39;100740.34;5052726;28;20315;-62
2021/05/03 02:52:17;;;;;;;;;;;10.40;99.90;;;9.87;79.05;100741.78;5051693;28;20418;-63
2021/05/03 02:54:45;;;;;;;;;;;10.30;99.90;;;9.73;79.06;100743.53;5052113;28;19972;-63
2021/05/03 02:57:12;;;;;;;;;;;10.20;99.90;;;9.65;79.52;100735.25;5052464;28;19964;-62
2021/05/03 02:59:39;;;;;;;;;;;10.20;99.90;;;9.60;80.35;100735.31;5051994;28;19960;-62
2021/05/03 03:02:06;;;;;;;;;;;10.10;99.90;;;9.56;80.39;100736.97;5051773;28;19925;-62
2021/05/03 03:04:34;;;;;;;;;;;10.10;99.90;;;9.52;80.47;100736.72;5051901;28;20379;-63
2021/05/03 03:07:01;;;;;;;;;;;10.00;99.90;;;9.47;80.79;100727.88;5052281;28;20015;-63
2021/05/03 03:09:28;;;;;;;;;;;9.90;99.90;;;9.37;80.93;100738.75;5052398;28;19924;-62
2021/05/03 03:11:58;;;;;;;;;;;9.80;99.90;;;9.26;80.50;100738.06;5051593;28;20103;-63
2021/05/03 03:14:25;;;;;;;;;;;9.60;99.90;;;9.15;81.13;100737.31;5052108;28;19960;-63
2021/05/03 03:16:53;;;;;;;;;;;9.50;99.90;;;9.10;81.82;100734.66;5051197;28;19982;-62
2021/05/03 03:19:20;;;;;;;;;;;9.50;99.90;;;8.84;83.12;100733.25;5052348;28;19929;-63
2021/05/03 03:21:48;;;;;;;;;;;9.40;99.90;;;8.67;84.33;100730.09;5051379;28;20039;-63
2021/05/03 03:24:16;;;;;;;;;;;9.30;99.90;;;8.63;85.45;100726.38;5051627;28;20031;-63
2021/05/03 03:26:44;;;;;;;;;;;;;;;8.64;86.30;100726.09;5051023;28;19932;-63
2021/05/03 03:29:11;;;;;;;;;;;9.20;99.90;;;8.68;86.23;100724.44;5052012;28;20468;-62
2021/05/03 03:31:38;;;;;;;;;;;9.20;99.90;;;8.69;86.16;100730.66;5051444;28;20028;-63
2021/05/03 03:34:05;;;;;;;;;;;9.20;99.90;;;8.74;86.11;100723.34;5051422;28;19972;-63
2021/05/03 03:36:33;;;;;;;;;;;9.30;99.90;;;8.85;85.91;100725.94;5051819;28;20362;-62
2021/05/03 03:39:02;;;;;;;;;;;9.30;99.90;;;8.94;85.42;100718.88;5052221;28;19932;-62
2021/05/03 03:41:30;;;;;;;;;;;9.40;99.90;;;8.90;85.65;100725.94;5051374;28;19929;-63
2021/05/03 03:43:57;;;;;;;;;;;9.40;99.90;;;8.85;84.94;100729.44;5051392;28;19925;-62
2021/05/03 03:46:24;;;;;;;;;;;9.40;99.90;;;8.70;85.21;100719.56;5051114;28;19979;-63
2021/05/03 03:48:51;;;;;;;;;;;9.30;99.90;;;8.57;85.66;100725.56;5051409;28;20387;-62
2021/05/03 03:51:19;;;;;;;;;;;9.10;99.90;;;8.51;86.20;100718.59;5051446;28;20379;-62
2021/05/03 03:53:46;;;;;;;;;;;9.10;99.90;;;8.58;86.52;100721.81;5051410;28;19924;-62
2021/05/03 03:56:15;;;;;;;;;;;9.10;99.90;;;8.60;86.91;100716.94;5051589;28;19991;-63
2021/05/03 03:58:42;;;;;;;;;;;9.10;99.90;;;8.56;86.89;100718.59;5051939;28;19925;-63
2021/05/03 04:01:11;;;;;;;;;;;9.10;99.90;;;8.60;86.84;100711.53;5051245;28;19925;-62
2021/05/03 04:03:46;;;;;;;;;;;9.10;99.90;;;8.65;87.14;100708.84;5051285;28;19925;-62
2021/05/03 04:06:25;;;;;;;;;;;9.20;99.90;;;8.60;86.61;100708.06;5051810;28;19925;-62
2021/05/03 04:08:56;;;;;;;;;;;9.20;99.90;;;8.45;85.97;100706.25;5051924;28;19928;-63
2021/05/03 04:11:47;;;;;;;;;;;9.10;99.90;;;8.42;86.45;100706.78;5050970;28;19925;-63
2021/05/03 04:21:03;;;;;;;;;;;9.00;99.90;;;8.49;87.33;100710.00;5051170;28;19968;-62
2021/05/03 04:25:40;;;;;;;;;;;9.00;99.90;;;8.40;88.04;100722.44;5051305;28;19925;-63
2021/05/03 04:28:09;;;;;;;;;;;8.90;99.90;;;8.44;87.58;100711.94;5053936;28;19948;-62
2021/05/03 04:30:37;;;;;;;;;;;9.00;99.90;;;8.49;87.74;100719.97;5055215;28;20028;-63
2021/05/03 04:33:05;;;;;;;;;;;9.00;99.90;;;8.46;87.66;100715.94;5054198;28;19925;-63
2021/05/03 04:35:32;;;;;;;;;;;9.00;99.90;;;8.48;86.96;100715.69;5054740;28;19929;-63
2021/05/03 04:37:59;;;;;;;;;;;9.00;99.90;;;8.54;86.66;100707.25;5055060;28;19971;-63
2021/05/03 04:40:26;;;;;;;;;;;9.00;99.90;;;8.59;86.69;100704.56;5055087;28;20023;-63
2021/05/03 04:42:54;;;;;;;;;;;9.00;99.90;;;8.59;86.87;100712.66;5053882;28;19951;-63
2021/05/03 04:45:22;;;;;;;;;;;9.00;99.90;;;8.58;85.96;100708.31;5054469;28;19976;-63
2021/05/03 04:47:49;;;;;;;;;;;9.00;99.90;;;8.56;86.24;100713.19;5054927;28;19986;-62
2021/05/03 04:50:16;;;;;;;;;;;9.00;99.90;;;8.56;86.23;100715.91;5054796;28;20024;-63
2021/05/03 04:52:46;;;;;;;;;;;8.90;99.90;;;8.42;85.58;100714.09;5053845;28;20280;-63
2021/05/03 04:55:13;;;;;;;;;;;8.90;99.90;;;8.36;85.91;100721.38;5054320;28;19968;-62
2021/05/03 04:57:40;;;;;;;;;;;8.80;99.90;;;8.32;87.14;100725.72;5054325;28;20295;-63
2021/05/03 05:00:08;;;;;;;;;;;8.80;99.90;;;8.28;87.38;100724.66;5054832;28;20023;-62
2021/05/03 05:02:37;;;;;;;;;;;8.70;99.90;;;8.31;87.14;100726.81;5053726;28;20023;-63
2021/05/03 05:05:04;;;;;;;;;;;8.70;99.90;;;8.33;87.12;100729.25;5054122;28;19956;-63
2021/05/03 05:07:31;;;;;;;;;;;8.70;99.90;;;8.33;86.92;100721.94;5054699;28;19971;-63
2021/05/03 05:09:59;;;;;;;;;;;8.70;99.90;;;8.36;87.62;100726.00;5054370;28;20387;-63
2021/05/03 05:12:26;;;;;;;;;;;8.80;99.90;;;8.32;87.21;100716.84;5053310;28;19968;-63
2021/05/03 05:14:53;;;;;;;;;;;8.80;99.90;;;8.32;87.00;100725.72;5053995;28;19968;-63
2021/05/03 05:17:20;;;;;;;;;;;8.70;99.90;;;8.37;87.61;100730.28;5053518;28;19983;-63
2021/05/03 05:19:49;;;;;;;;;;;8.80;99.90;;;8.35;87.11;100733.25;5054451;28;20010;-63
2021/05/03 05:22:16;;;;;;;;;;;8.80;99.90;;;8.37;87.68;100733.78;5053274;28;19925;-62
2021/05/03 05:24:44;;;;;;;;;;;8.80;99.90;;;8.39;87.27;100730.81;5053857;28;19979;-63
2021/05/03 05:27:11;;;;;;;;;;;8.80;99.90;;;8.39;87.09;100731.59;5053838;28;19968;-63
2021/05/03 05:29:38;;;;;;;;;;;8.80;99.90;;;8.42;86.27;100730.28;5054165;28;19971;-63
2021/05/03 05:32:06;;;;;;;;;;;8.80;99.90;;;8.41;86.53;100732.16;5053261;28;19963;-63
2021/05/03 05:34:33;;;;;;;;;;;8.80;99.90;;;8.42;86.10;100724.88;5053624;28;20391;-63
2021/05/03 05:37:01;;;;;;;;;;;8.80;99.90;;;8.38;85.12;100727.31;5053515;28;19979;-62
2021/05/03 05:39:28;;;;;;;;;;;8.80;99.90;;;8.25;85.15;100735.97;5053216;28;19987;-63
2021/05/03 05:41:55;;;;;;;;;;;8.70;99.90;;;8.20;85.76;100733.28;5052332;28;19964;-62
2021/05/03 05:44:23;;;;;;;;;;;8.70;99.90;;;8.29;85.55;100726.28;5053354;28;19932;-62
2021/05/03 05:46:50;;;;;;;;;;;8.80;99.90;;;8.40;85.01;100737.81;5053663;28;19924;-62
2021/05/03 05:49:17;;;;;;;;;;;8.80;99.90;;;8.51;83.88;100731.28;5053988;28;20473;-63
2021/05/03 05:51:44;;;;;;;;;;;8.90;99.90;;;8.55;83.34;100726.94;5052741;28;20023;-63
2021/05/03 05:54:13;;;;;;;;;;;9.00;99.90;;;8.59;83.19;100739.59;5053471;28;20020;-63
2021/05/03 05:56:40;;;;;;;;;;;9.00;99.90;;;8.64;82.75;100744.13;5053345;28;20016;-62
2021/05/03 05:59:07;;;;;;;;;;;9.00;99.90;;;8.86;81.73;100741.84;5053745;28;19960;-63
2021/05/03 06:01:34;;;;;;;;;;;9.10;99.90;;;9.72;78.16;100741.13;5052717;28;19977;-62
2021/05/03 06:04:01;;;;;;;;;;;9.80;99.90;;;10.26;74.32;100736.22;5052808;28;20372;-63
2021/05/03 06:06:28;;;;;;;;;;;10.40;99.90;;;11.05;71.37;100736.44;5053124;28;19960;-63
2021/05/03 06:08:55;;;;;;;;;;;11.80;99.90;;;12.47;nan;100730.81;5053544;28;20042;-63
2021/05/03 06:11:24;;;;;;;;;;;13.20;99.90;;;14.18;59.67;100733.09;5052643;28;20023;-63
2021/05/03 06:13:52;;;;;;;;;;;;;;;15.35;56.10;100730.31;5052620;28;20019;-63
2021/05/03 06:16:19;;;;;;;;;;;14.90;99.90;;;16.58;51.88;100735.44;5052982;28;19964;-63
2021/05/03 06:18:47;;;;;;;;;;;15.20;99.90;;;17.30;50.02;100725.97;5053284;28;19932;-63
2021/05/03 06:21:14;;;;;;;;;;;16.60;99.90;;;17.69;48.93;100727.38;5052365;28;20033;-63
2021/05/03 06:23:41;;;;;;;;;;;17.00;99.90;;;17.92;48.18;100728.56;5052575;28;19931;-63
2021/05/03 06:26:09;;;;;;;;;;;17.60;99.90;;;17.65;49.04;100737.41;5052757;28;19925;-63
2021/05/03 06:28:37;;;;;;;;;;;18.30;99.90;;;17.82;48.89;100731.72;5053161;28;20015;-63
2021/05/03 06:31:06;;;;;;;;;;;;;;;18.05;48.46;100729.34;5052173;28;20020;-63
2021/05/03 06:33:33;;;;;;;;;;;19.20;99.90;;;18.41;47.53;100732.88;5052252;28;19967;-63
2021/05/03 06:36:00;;;;;;;;;;;19.80;99.90;;;19.18;46.04;100735.56;5052557;28;20364;-63
2021/05/03 06:38:27;;;;;;;;;;;19.90;99.90;;;20.03;44.20;100733.13;5052818;28;20416;-63
2021/05/03 06:40:54;;;;;;;;;;;20.40;99.90;;;20.35;43.01;100736.66;5052076;28;19924;-63
2021/05/03 06:43:22;;;;;;;;;;;21.10;99.90;;;19.92;42.99;100740.28;5051698;28;19928;-63
2021/05/03 06:45:50;;;;;;;;;;;21.40;99.90;;;19.55;43.29;100736.97;5052600;28;20055;-63
2021/05/03 06:48:17;;;;;;;;;;;21.40;99.90;;;19.45;44.24;100741.06;5052675;28;19924;-63
2021/05/03 06:50:45;;;;;;;;;;;21.40;99.90;;;19.34;44.01;100737.19;5052044;28;20384;-63
2021/05/03 06:53:13;;;;;;;;;;;21.50;99.90;;;19.24;44.09;100748.66;5052080;28;19928;-63
2021/05/03 06:55:40;;;;;;;;;;;21.60;99.90;;;19.05;43.58;100749.31;5052573;28;20444;-63
2021/05/03 06:58:07;;;;;;;;;;;21.60;99.90;;;18.76;44.63;100737.84;5052210;28;19975;-63
2021/05/03 07:00:39;;;;;;;;;;;21.40;99.90;;;18.01;45.54;100759.34;5052262;28;20020;-63
2021/05/03 07:03:07;;;;;;;;;;;20.70;99.90;;;17.33;48.86;100756.19;5051778;28;19926;-63
2021/05/03 07:05:35;;;;;;;;;;;20.40;99.90;;;16.97;49.43;100756.03;5052511;28;19925;-63
2021/05/03 07:08:02;;;;;;;;;;;18.90;99.90;;;16.71;49.57;100764.44;5052294;28;20538;-63
2021/05/03 07:10:29;;;;;;;;;;;18.60;99.90;;;16.78;51.37;100766.59;5052385;28;19925;-63
2021/05/03 07:12:56;;;;;;;;;;;18.20;99.90;;;16.71;52.49;100763.63;5051432;28;19929;-63
2021/05/03 07:15:24;;;;;;;;;;;17.90;99.90;;;16.93;50.20;100769.53;5052173;28;19925;-63
2021/05/03 07:17:51;;;;;;;;;;;17.60;99.90;;;17.13;48.73;100769.88;5052327;28;19994;-63
2021/05/03 07:20:19;;;;;;;;;;;17.50;99.90;;;17.10;49.23;100765.88;5052329;28;19960;-64
2021/05/03 07:22:46;;;;;;;;;;;17.40;99.90;;;17.11;48.83;100767.50;5051167;28;20362;-63
2021/05/03 07:25:14;;;;;;;;;;;17.40;99.90;;;17.12;49.44;100769.06;5052083;28;19950;-63
2021/05/03 07:27:41;;;;;;;;;;;17.40;99.90;;;17.28;49.63;100763.78;5052110;28;19967;-63
2021/05/03 07:30:11;;;;;;;;;;;17.40;99.90;;;17.27;47.86;100762.19;5052358;28;19947;-63
2021/05/03 07:32:38;;;;;;;;;;;17.50;99.90;;;17.16;48.01;100761.00;5051148;28;20356;-63
2021/05/03 07:35:07;;;;;;;;;;;17.50;99.90;;;17.13;47.74;100765.22;5052077;28;20501;-63
2021/05/03 07:37:35;;;;;;;;;;;17.40;99.90;;;17.26;46.51;100758.69;5051681;28;20360;-63
2021/05/03 07:40:03;;;;;;;;;;;17.40;99.90;;;17.34;46.66;100763.25;5052213;28;19979;-63
2021/05/03 07:42:30;;;;;;;;;;;17.50;99.90;;;17.48;47.23;100760.22;5051023;28;19925;-63
2021/05/03 07:44:57;;;;;;;;;;;17.60;99.90;;;17.57;46.73;100760.19;5051679;28;19963;-63
2021/05/03 07:47:25;;;;;;;;;;;17.70;99.90;;;17.55;46.19;100768.69;5052013;28;20350;-63
2021/05/03 07:49:53;;;;;;;;;;;17.80;99.90;;;17.57;48.36;100752.75;5052036;28;19936;-63
2021/05/03 07:52:20;;;;;;;;;;;17.80;99.90;;;17.66;47.16;100760.88;5050876;28;19967;-63
2021/05/03 07:54:49;;;;;;;;;;;17.90;99.90;;;17.87;47.33;100759.66;5051822;28;19959;-63
2021/05/03 07:57:16;;;;;;;;;;;18.10;99.90;;;17.73;44.10;100756.44;5051820;28;20380;-63
2021/05/03 07:59:43;;;;;;;;;;;18.00;99.90;;;17.83;45.64;100766.16;5051778;28;19931;-63
2021/05/03 08:02:10;;;;;;;;;;;18.00;99.90;;;17.88;45.85;100766.72;5052136;28;19952;-63
2021/05/03 08:04:39;;;;;;;;;;;18.10;99.90;;;17.98;43.70;100766.28;5055483;28;20438;-63
2021/05/03 08:07:06;;;;;;;;;;;18.10;99.90;;;17.98;44.98;100765.50;5055450;28;19932;-63
2021/05/03 08:09:33;;;;;;;;;;;18.30;99.90;;;18.08;43.08;100762.31;5055827;28;20360;-63
2021/05/03 08:12:01;;;;;;;;;;;18.30;99.90;;;18.13;44.62;100764.81;5054865;28;19935;-63
2021/05/03 08:14:28;;;;;;;;;;;18.40;99.90;;;18.08;43.19;100764.25;5055376;28;19924;-62
2021/05/03 08:17:00;;;;;;;;;;;18.40;99.90;;;18.06;43.50;100761.84;5055034;28;19944;-63
2021/05/03 08:19:29;;;;;;;;;;;18.40;99.90;;;18.07;44.50;100763.44;5055528;28;19991;-63
2021/05/03 08:21:57;;;;;;;;;;;18.60;99.90;;;18.18;43.46;100761.06;5054510;28;19968;-63
2021/05/03 08:24:24;;;;;;;;;;;18.50;99.90;;;18.26;43.53;100755.47;5055066;28;19925;-63
2021/05/03 08:26:51;;;;;;;;;;;18.50;99.90;;;18.23;43.58;100761.63;5055006;28;20433;-63
2021/05/03 08:29:19;;;;;;;;;;;18.40;99.90;;;18.34;45.45;100760.03;5055390;28;20023;-63
2021/05/03 08:31:47;;;;;;;;;;;18.60;99.90;;;18.34;43.74;100760.03;5054428;28;19987;-63
2021/05/03 08:34:14;;;;;;;;;;;18.60;99.90;;;18.38;44.88;100758.22;5054600;28;19925;-63
2021/05/03 08:36:41;;;;;;;;;;;18.70;99.90;;;18.42;44.92;100761.06;5054997;28;20004;-63
2021/05/03 08:39:09;;;;;;;;;;;18.70;99.90;;;18.49;43.57;100762.09;5055061;28;19929;-62
2021/05/03 08:41:36;;;;;;;;;;;18.70;99.90;;;18.43;44.48;100763.44;5054447;28;19936;-63
2021/05/03 08:44:04;;;;;;;;;;;18.80;99.90;;;18.52;45.19;100769.63;5054510;28;19968;-63
2021/05/03 08:46:33;;;;;;;;;;;18.80;99.90;;;18.59;43.97;100765.50;5054494;28;19951;-63
2021/05/03 08:49:04;;;;;;;;;;;18.90;99.90;;;18.74;44.65;100767.53;5054908;28;19936;-63
2021/05/03 08:51:36;;;;;;;;;;;19.00;99.90;;;18.99;43.31;100758.94;5054439;28;20023;-64
2021/05/03 08:54:10;;;;;;;;;;;19.10;99.90;;;19.05;44.39;100751.25;5054658;28;20019;-63
2021/05/03 08:56:37;;;;;;;;;;;19.30;99.90;;;19.03;43.22;100756.25;5054832;28;19960;-63
2021/05/03 08:59:04;;;;;;;;;;;19.30;99.90;;;19.00;44.37;100756.97;5054720;28;19979;-63
2021/05/03 09:01:33;;;;;;;;;;;19.30;99.90;;;19.05;44.64;100754.78;5054122;28;20015;-63
2021/05/03 09:04:00;;;;;;;;;;;19.30;99.90;;;18.98;44.88;100753.78;5054262;28;19964;-63
2021/05/03 09:06:27;;;;;;;;;;;19.30;99.90;;;18.87;44.14;100755.41;5054414;28;19925;-63
2021/05/03 09:09:04;;;;;;;;;;;19.20;99.90;;;18.92;43.76;100760.66;5054505;28;19968;-63
2021/05/03 09:11:31;;;;;;;;;;;19.30;99.90;;;19.08;44.20;100762.31;5053869;28;19929;-63
2021/05/03 09:14:09;;;;;;;;;;;19.40;99.90;;;19.16;44.18;100757.03;5052612;28;20494;-63
2021/05/03 09:16:47;;;;;;;;;;;19.50;99.90;;;19.29;44.88;100762.13;5053985;28;19925;-63
2021/05/03 09:19:15;;;;;;;;;;;19.60;99.90;;;19.49;43.91;100755.66;5054467;28;20319;-63
2021/05/03 09:21:42;;;;;;;;;;;19.70;99.90;;;19.63;44.36;100761.53;5053631;28;20035;-63
2021/05/03 09:24:12;;;;;;;;;;;19.90;99.90;;;19.60;43.69;100756.75;5053885;28;19982;-63
2021/05/03 09:26:44;;;;;;;;;;;19.90;99.90;;;19.55;44.29;100750.69;5054059;28;20282;-63
2021/05/03 09:29:35;;;;;;;;;;;20.00;99.90;;;19.78;45.19;100759.94;5054403;28;19924;-63
2021/05/03 09:32:06;;;;;;;;;;;20.10;99.90;;;19.66;42.61;100753.75;5053296;28;20375;-63
2021/05/03 09:34:34;;;;;;;;;;;20.00;99.90;;;19.71;44.93;100753.47;5053855;28;20019;-63
2021/05/03 09:37:19;;;;;;;;;;;20.00;99.90;;;19.84;45.78;100747.56;5053804;28;20021;-63
2021/05/03 09:39:52;;;;;;;;;;;20.20;99.90;;;19.76;46.99;100743.03;5053974;28;20019;-63
2021/05/03 09:42:19;;;;;;;;;;;20.10;99.90;;;19.93;44.06;100750.13;5053154;28;19974;-63
2021/05/03 09:45:07;;;;;;;;;;;20.40;99.90;;;19.88;44.46;100748.44;5053602;28;20354;-63
2021/05/03 09:47:38;;;;;;;;;;;20.30;99.90;;;20.08;46.32;100747.38;5053579;28;19971;-63
2021/05/03 09:50:08;;;;;;;;;;;20.40;99.90;;;20.27;47.14;100740.41;5053832;28;19956;-63
2021/05/03 09:52:36;;;;;;;;;;;20.70;99.90;;;20.29;46.13;100744.38;5052904;28;20023;-63
2021/05/03 09:55:05;;;;;;;;;;;20.70;99.90;;;20.44;44.54;100740.81;5053515;28;20023;-64
2021/05/03 09:57:32;;;;;;;;;;;20.80;99.90;;;19.99;43.89;100744.03;5053317;28;19929;-63
2021/05/03 10:00:01;;;;;;;;;;;20.70;99.90;;;19.57;48.76;100746.47;5053576;28;20023;-63
2021/05/03 10:02:30;;;;;;;;;;;20.30;99.90;;;19.87;46.35;100743.31;5052660;28;19953;-63
2021/05/03 10:05:00;;;;;;;;;;;20.40;99.90;;;20.08;46.23;100743.84;5053315;28;19924;-63
2021/05/03 10:07:29;;;;;;;;;;;20.50;99.90;;;20.21;45.63;100748.09;5053167;28;19924;-63
2021/05/03 10:10:03;;;;;;;;;;;20.70;99.90;;;20.21;46.89;100748.09;5053269;28;19935;-63
2021/05/03 10:12:31;;;;;;;;;;;20.70;99.90;;;20.18;47.82;100748.78;5052615;28;20023;-63
2021/05/03 10:14:59;;;;;;;;;;;20.70;99.90;;;20.37;47.77;100750.81;5053169;28;19960;-63
2021/05/03 10:21:08;;;;;;;;;;;20.90;99.90;;;20.92;47.99;100744.19;5053212;28;20295;-63
2021/05/03 10:23:38;;;;;;;;;;;21.30;99.90;;;21.08;46.33;100737.50;5052669;28;19924;-63
2021/05/03 10:26:05;;;;;;;;;;;21.50;99.90;;;21.03;45.67;100742.47;5052555;28;20295;-63
2021/05/03 10:28:50;;;;;;;;;;;21.50;99.90;;;20.80;47.40;100744.31;5053074;28;19929;-63
2021/05/03 10:31:17;;;;;;;;;;;21.40;99.90;;;20.82;47.65;100745.59;5052368;28;19933;-63
2021/05/03 10:33:44;;;;;;;;;;;21.40;99.90;;;21.13;46.74;100742.72;5052340;28;20342;-63
2021/05/03 10:36:31;;;;;;;;;;;21.60;99.90;;;21.07;48.28;100746.88;5052956;28;20311;-63
2021/05/03 10:38:58;;;;;;;;;;;21.60;99.90;;;21.17;45.97;100745.53;5052915;28;19929;-63
2021/05/03 10:41:27;;;;;;;;;;;21.80;99.90;;;20.96;47.71;100751.38;5052074;28;19936;-63
2021/05/03 10:44:18;;;;;;;;;;;21.50;99.90;;;20.79;47.58;100751.00;5052164;28;20379;-63
2021/05/03 10:49:34;;;;;;;;;;;21.50;99.90;;;20.78;49.40;100754.91;5052888;28;19932;-63
2021/05/03 10:52:03;;;;;;;;;;;21.40;99.90;;;20.73;49.77;100745.75;5051685;28;19925;-64
2021/05/03 10:54:47;;;;;;;;;;;21.40;99.90;;;21.04;48.28;100744.84;5052373;28;19968;-63
2021/05/03 10:57:34;;;;;;;;;;;21.60;99.90;;;20.84;48.81;100739.72;5052248;28;19967;-63
2021/05/03 11:00:04;;;;;;;;;;;21.50;99.90;;;20.75;49.70;100739.13;5052503;28;20025;-64
2021/05/03 11:02:46;;;;;;;;;;;21.40;99.90;;;20.88;49.97;100737.84;5051410;28;19924;-63
2021/05/03 11:05:24;;;;;;;;;;;21.40;99.90;;;20.68;47.78;100739.75;5052506;28;19925;-63
2021/05/03 11:08:21;;;;;;;;;;;21.30;99.90;;;20.60;49.74;100730.59;5052408;28;19925;-63
2021/05/03 11:11:08;;;;;;;;;;;21.20;99.90;;;20.73;49.73;100731.25;5051885;28;19924;-63
2021/05/03 11:14:09;;;;;;;;;;;21.30;99.90;;;20.85;50.06;100727.56;5051901;28;19925;-63
2021/05/03 11:16:49;;;;;;;;;;;21.40;99.90;;;20.57;49.00;100733.25;5052006;28;19932;-63
2021/05/03 11:19:36;;;;;;;;;;;21.20;99.90;;;20.41;50.43;100736.03;5052550;28;19928;-63
2021/05/03 11:22:04;;;;;;;;;;;21.00;99.90;;;20.52;50.09;100728.81;5051321;28;20015;-63
2021/05/03 11:24:35;;;;;;;;;;;21.10;99.90;;;20.93;49.20;100734.81;5052031;28;20820;-63
2021/05/03 11:27:06;;;;;;;;;;;21.40;99.90;;;21.07;48.86;100721.34;5051758;28;19991;-63
2021/05/03 11:29:39;;;;;;;;;;;21.60;99.90;;;21.29;48.28;100719.84;5052325;28;19932;-63
2021/05/03 11:32:07;;;;;;;;;;;21.80;99.90;;;21.47;48.11;100721.75;5051326;28;19925;-63
2021/05/03 11:34:40;;;;;;;;;;;22.00;99.90;;;21.51;49.27;100717.13;5051798;28;19929;-63
2021/05/03 11:37:09;;;;;;;;;;;22.10;99.90;;;21.27;49.29;100717.47;5052713;28;20287;-63